createdAt,value
2022-11-21T00:00:28.554Z,15.63
2022-11-21T00:02:58.933Z,15.67
2022-11-21T00:05:30.426Z,15.66
2022-11-21T00:08:00.511Z,15.64
2022-11-21T00:10:29.947Z,15.60
2022-11-21T00:13:00.180Z,15.63
2022-11-21T00:15:30.456Z,15.75
2022-11-21T00:18:00.131Z,15.67
2022-11-21T00:20:31.075Z,15.66
2022-11-21T00:23:00.677Z,15.66
2022-11-21T00:25:30.323Z,15.60
2022-11-21T00:27:59.870Z,15.58
2022-11-21T00:30:29.441Z,15.58
2022-11-21T00:32:59.339Z,15.60
2022-11-21T00:35:29.147Z,15.54
2022-11-21T00:38:00.008Z,15.60
2022-11-21T00:40:29.746Z,15.62
2022-11-21T00:42:59.286Z,15.60
2022-11-21T00:45:29.005Z,15.56
2022-11-21T00:47:58.535Z,15.54
2022-11-21T00:50:28.058Z,15.49
2022-11-21T00:52:57.801Z,15.48
2022-11-21T00:55:28.658Z,15.47
2022-11-21T00:57:58.336Z,15.46
2022-11-21T01:00:27.890Z,15.45
2022-11-21T01:02:57.471Z,15.44
2022-11-21T01:05:26.996Z,15.48
2022-11-21T01:07:56.631Z,15.54
2022-11-21T01:10:26.174Z,15.52
2022-11-21T01:12:57.565Z,15.49
2022-11-21T01:15:27.633Z,15.54
2022-11-21T01:17:57.158Z,15.47
2022-11-21T01:20:26.793Z,15.42
2022-11-21T01:22:56.279Z,15.45
2022-11-21T01:25:25.854Z,15.38
2022-11-21T01:27:55.346Z,15.31
2022-11-21T01:30:26.212Z,15.25
2022-11-21T01:32:55.737Z,15.39
2022-11-21T01:35:25.863Z,15.40
2022-11-21T01:37:55.350Z,15.40
2022-11-21T01:40:24.868Z,15.50
2022-11-21T01:42:55.098Z,15.54
2022-11-21T01:45:42.936Z,15.62
2022-11-21T01:48:13.933Z,15.64
2022-11-21T01:50:43.691Z,15.73
2022-11-21T01:53:13.348Z,15.80
2022-11-21T01:55:42.983Z,15.86
2022-11-21T01:58:13.085Z,16.01
2022-11-21T02:00:43.965Z,16.01
2022-11-21T02:03:16.735Z,15.98
2022-11-21T02:05:46.573Z,16.01
2022-11-21T02:08:18.950Z,15.93
2022-11-21T02:10:51.010Z,15.92
2022-11-21T02:13:22.773Z,16.00
2022-11-21T02:15:52.750Z,15.94
2022-11-21T02:18:23.712Z,15.94
2022-11-21T02:20:56.257Z,15.92
2022-11-21T02:23:29.280Z,16.02
2022-11-21T02:26:00.776Z,15.93
2022-11-21T02:28:31.663Z,16.03
2022-11-21T02:31:01.183Z,16.00
2022-11-21T02:33:30.658Z,16.00
2022-11-21T02:36:00.801Z,15.99
2022-11-21T02:38:31.786Z,15.99
2022-11-21T02:41:07.892Z,15.98
2022-11-21T02:43:39.705Z,16.01
2022-11-21T02:46:09.319Z,16.00
2022-11-21T02:48:39.279Z,15.91
2022-11-21T02:51:08.868Z,15.80
2022-11-21T02:53:38.320Z,15.79
2022-11-21T02:56:09.220Z,15.82
2022-11-21T02:58:39.372Z,15.76
2022-11-21T03:01:08.968Z,15.71
2022-11-21T03:03:38.472Z,15.65
2022-11-21T03:06:07.908Z,15.60
2022-11-21T03:08:37.461Z,15.57
2022-11-21T03:11:06.941Z,15.58
2022-11-21T03:13:38.439Z,15.58
2022-11-21T03:16:08.424Z,15.55
2022-11-21T03:18:38.099Z,15.52
2022-11-21T03:21:07.615Z,15.49
2022-11-21T03:23:37.145Z,15.48
2022-11-21T03:26:06.615Z,15.46
2022-11-21T03:28:36.197Z,15.44
2022-11-21T03:31:07.177Z,15.40
2022-11-21T03:33:36.860Z,15.33
2022-11-21T03:36:06.468Z,15.30
2022-11-21T03:38:36.062Z,15.30
2022-11-21T03:41:26.633Z,15.26
2022-11-21T03:43:56.267Z,15.25
2022-11-21T03:46:27.502Z,15.27
2022-11-21T03:48:57.130Z,15.29
2022-11-21T03:51:26.916Z,15.33
2022-11-21T03:53:56.561Z,15.36
2022-11-21T03:56:26.375Z,15.32
2022-11-21T03:58:55.934Z,15.37
2022-11-21T04:01:30.251Z,15.37
2022-11-21T04:04:02.207Z,15.34
2022-11-21T04:06:32.307Z,15.27
2022-11-21T04:09:01.744Z,15.33
2022-11-21T04:11:31.304Z,15.34
2022-11-21T04:14:01.344Z,15.32
2022-11-21T04:16:32.753Z,15.30
2022-11-21T04:19:02.255Z,15.32
2022-11-21T04:21:31.789Z,15.41
2022-11-21T04:24:01.270Z,15.32
2022-11-21T04:26:30.891Z,15.32
2022-11-21T04:29:00.616Z,15.41
2022-11-21T04:31:30.129Z,15.39
2022-11-21T04:34:01.304Z,15.37
2022-11-21T04:36:31.072Z,15.32
2022-11-21T04:39:00.792Z,15.26
2022-11-21T04:41:30.500Z,15.20
2022-11-21T04:44:00.052Z,15.19
2022-11-21T04:46:29.592Z,15.12
2022-11-21T04:48:59.467Z,15.14
2022-11-21T04:51:30.389Z,15.15
2022-11-21T04:54:00.087Z,15.21
2022-11-21T04:56:29.692Z,15.11
2022-11-21T04:58:59.311Z,15.14
2022-11-21T05:01:28.918Z,15.23
2022-11-21T05:03:58.587Z,15.15
2022-11-21T05:06:28.099Z,15.13
2022-11-21T05:08:58.993Z,15.12
2022-11-21T05:11:45.769Z,15.19
2022-11-21T05:14:15.889Z,15.10
2022-11-21T05:16:46.078Z,15.10
2022-11-21T05:19:15.779Z,15.07
2022-11-21T05:21:45.489Z,15.09
2022-11-21T05:24:16.576Z,15.08
2022-11-21T05:26:46.096Z,15.08
2022-11-21T05:29:15.612Z,15.09
2022-11-21T05:31:45.209Z,15.04
2022-11-21T05:34:14.708Z,15.06
2022-11-21T05:36:44.263Z,15.03
2022-11-21T05:39:14.636Z,15.06
2022-11-21T05:41:45.572Z,15.04
2022-11-21T05:44:14.231Z,15.03
2022-11-21T05:46:43.739Z,15.02
2022-11-21T05:49:13.497Z,15.03
2022-11-21T05:51:43.063Z,15.09
2022-11-21T05:54:13.847Z,15.12
2022-11-21T05:56:43.557Z,15.12
2022-11-21T05:59:14.679Z,15.13
2022-11-21T06:02:01.292Z,15.26
2022-11-21T06:04:31.171Z,15.29
2022-11-21T06:07:01.002Z,15.30
2022-11-21T06:09:30.650Z,15.32
2022-11-21T06:12:00.627Z,15.37
2022-11-21T06:14:31.524Z,15.39
2022-11-21T06:17:01.084Z,15.42
2022-11-21T06:19:30.552Z,15.48
2022-11-21T06:22:00.198Z,15.47
2022-11-21T06:24:29.846Z,15.54
2022-11-21T06:27:00.096Z,15.55
2022-11-21T06:29:31.068Z,15.57
2022-11-21T06:32:00.616Z,15.62
2022-11-21T06:34:30.434Z,15.67
2022-11-21T06:37:00.612Z,15.71
2022-11-21T06:39:30.228Z,15.76
2022-11-21T06:41:59.772Z,15.81
2022-11-21T06:44:29.629Z,15.83
2022-11-21T06:47:01.101Z,15.94
2022-11-21T06:49:30.720Z,15.89
2022-11-21T06:52:00.743Z,15.96
2022-11-21T06:54:30.645Z,15.93
2022-11-21T06:57:00.315Z,15.99
2022-11-21T06:59:29.982Z,16.05
2022-11-21T07:01:59.510Z,16.09
2022-11-21T07:04:30.704Z,16.18
2022-11-21T07:07:00.495Z,16.17
2022-11-21T07:09:34.151Z,16.13
2022-11-21T07:12:18.550Z,16.08
2022-11-21T07:14:49.368Z,16.17
2022-11-21T07:17:19.602Z,16.18
2022-11-21T07:19:50.649Z,16.20
2022-11-21T07:22:20.349Z,16.36
2022-11-21T07:24:49.852Z,16.37
2022-11-21T07:27:19.574Z,16.37
2022-11-21T07:29:49.539Z,16.50
2022-11-21T07:32:19.297Z,16.70
2022-11-21T07:34:50.197Z,16.75
2022-11-21T07:37:19.780Z,16.80
2022-11-21T07:39:49.484Z,16.92
2022-11-21T07:42:19.053Z,16.99
2022-11-21T07:44:48.537Z,17.06
2022-11-21T07:47:18.092Z,17.15
2022-11-21T07:49:47.628Z,17.22
2022-11-21T07:52:18.544Z,17.30
2022-11-21T07:54:48.016Z,17.46
2022-11-21T07:57:17.478Z,17.54
2022-11-21T07:59:47.096Z,17.64
2022-11-21T08:02:19.650Z,17.70
2022-11-21T08:04:49.340Z,17.81
2022-11-21T08:07:21.463Z,17.92
2022-11-21T08:09:51.137Z,18.07
2022-11-21T08:12:21.357Z,18.20
2022-11-21T08:14:51.387Z,18.31
2022-11-21T08:17:21.413Z,18.32
2022-11-21T08:19:51.217Z,18.38
2022-11-21T08:22:22.536Z,18.47
2022-11-21T08:24:53.955Z,18.59
2022-11-21T08:27:24.461Z,18.65
2022-11-21T08:29:53.975Z,18.64
2022-11-21T08:32:23.811Z,18.71
2022-11-21T08:34:53.495Z,18.69
2022-11-21T08:37:24.576Z,18.69
2022-11-21T08:39:54.988Z,18.71
2022-11-21T08:42:24.790Z,18.79
2022-11-21T08:44:54.558Z,18.89
2022-11-21T08:47:24.352Z,18.91
2022-11-21T08:49:53.872Z,18.95
2022-11-21T08:52:24.749Z,19.06
2022-11-21T08:54:55.626Z,19.05
2022-11-21T08:57:25.248Z,18.89
2022-11-21T08:59:56.186Z,18.99
2022-11-21T09:02:25.902Z,18.98
2022-11-21T09:04:55.557Z,19.04
2022-11-21T09:07:26.613Z,19.08
2022-11-21T09:09:56.298Z,19.06
2022-11-21T09:12:26.531Z,19.04
2022-11-21T09:15:14.009Z,18.94
2022-11-21T09:18:01.483Z,18.86
2022-11-21T09:20:31.337Z,18.83
2022-11-21T09:23:06.191Z,18.77
2022-11-21T09:25:35.806Z,18.61
2022-11-21T09:28:15.428Z,18.47
2022-11-21T09:30:45.367Z,18.37
2022-11-21T09:33:16.857Z,18.37
2022-11-21T09:35:47.965Z,18.33
2022-11-21T09:38:23.867Z,18.29
2022-11-21T09:40:57.929Z,18.25
2022-11-21T09:43:36.316Z,18.21
2022-11-21T09:46:10.762Z,18.23
2022-11-21T09:48:47.692Z,18.14
2022-11-21T09:51:19.242Z,18.09
2022-11-21T09:53:56.275Z,18.11
2022-11-21T09:56:27.464Z,18.04
2022-11-21T09:59:07.232Z,18.04
2022-11-21T10:01:37.572Z,18.07
2022-11-21T10:04:07.077Z,18.12
2022-11-21T10:06:40.456Z,18.02
2022-11-21T10:09:18.490Z,18.04
2022-11-21T10:12:16.899Z,18.03
2022-11-21T10:14:51.610Z,18.03
2022-11-21T10:17:25.846Z,18.03
2022-11-21T10:20:10.808Z,17.98
2022-11-21T10:22:49.341Z,18.01
2022-11-21T10:25:26.870Z,18.04
2022-11-21T10:28:01.668Z,18.02
2022-11-21T10:30:31.649Z,18.02
2022-11-21T10:33:03.617Z,18.02
2022-11-21T10:35:37.831Z,18.03
2022-11-21T10:38:17.280Z,18.00
2022-11-21T10:40:50.223Z,18.11
2022-11-21T10:43:42.673Z,18.10
2022-11-21T10:46:12.252Z,18.08
2022-11-21T10:48:41.865Z,18.10
2022-11-21T10:51:23.942Z,18.17
2022-11-21T10:54:21.426Z,18.13
2022-11-21T10:56:53.406Z,18.15
2022-11-21T10:59:30.143Z,18.22
2022-11-21T11:02:02.342Z,18.21
2022-11-21T11:04:41.559Z,18.24
2022-11-21T11:07:23.626Z,18.21
2022-11-21T11:09:53.679Z,18.25
2022-11-21T11:12:49.919Z,18.19
2022-11-21T11:15:21.057Z,18.09
2022-11-21T11:17:52.342Z,18.05
2022-11-21T11:20:39.605Z,18.07
2022-11-21T11:23:24.586Z,18.06
2022-11-21T11:25:55.017Z,17.99
2022-11-21T11:28:26.790Z,17.96
2022-11-21T11:30:56.854Z,17.92
2022-11-21T11:33:33.658Z,17.88
2022-11-21T11:36:10.543Z,17.91
2022-11-21T11:38:44.136Z,17.90
2022-11-21T11:41:19.851Z,17.81
2022-11-21T11:44:12.206Z,17.83
2022-11-21T11:47:03.511Z,17.86
2022-11-21T11:49:58.932Z,17.81
2022-11-21T11:52:30.517Z,17.82
2022-11-21T11:55:03.372Z,17.74
2022-11-21T11:57:34.023Z,17.67
2022-11-21T12:00:10.177Z,17.66
2022-11-21T12:02:47.092Z,17.64
2022-11-21T12:05:20.810Z,17.57
2022-11-21T12:11:00.475Z,17.42
2022-11-21T12:13:32.601Z,17.38
2022-11-21T12:16:11.983Z,17.29
2022-11-21T12:18:49.619Z,17.26
2022-11-21T12:21:19.865Z,17.17
2022-11-21T12:23:50.735Z,17.12
2022-11-21T12:26:29.299Z,17.05
2022-11-21T12:29:08.524Z,16.93
2022-11-21T12:31:48.198Z,16.80
2022-11-21T12:34:23.776Z,16.69
2022-11-21T12:36:58.323Z,16.62
2022-11-21T12:39:45.427Z,16.52
2022-11-21T12:42:39.138Z,16.36
2022-11-21T12:45:27.258Z,16.33
2022-11-21T12:48:28.968Z,16.19
2022-11-21T12:51:25.008Z,16.13
2022-11-21T12:54:15.328Z,16.07
2022-11-21T12:56:49.603Z,15.99
2022-11-21T12:59:20.853Z,15.98
2022-11-21T13:01:55.740Z,15.92
2022-11-21T13:04:29.985Z,15.87
2022-11-21T13:07:00.481Z,15.85
2022-11-21T13:09:33.589Z,15.84
2022-11-21T13:12:14.842Z,15.86
2022-11-21T13:14:48.273Z,15.85
2022-11-21T13:17:24.237Z,15.87
2022-11-21T13:19:57.100Z,15.87
2022-11-21T13:22:44.972Z,15.85
2022-11-21T13:25:15.129Z,15.84
2022-11-21T13:27:44.830Z,15.88
2022-11-21T13:30:21.944Z,15.92
2022-11-21T13:32:52.641Z,16.02
2022-11-21T13:35:40.583Z,16.09
2022-11-21T13:38:13.165Z,16.12
2022-11-21T13:41:04.231Z,16.08
2022-11-21T13:43:34.547Z,16.03
2022-11-21T13:46:04.911Z,15.98
2022-11-21T13:48:47.551Z,15.94
2022-11-21T13:51:31.997Z,15.93
2022-11-21T13:54:11.246Z,15.90
2022-11-21T13:56:47.173Z,15.84
2022-11-21T13:59:27.967Z,15.82
2022-11-21T14:02:12.791Z,15.75
2022-11-21T14:04:58.306Z,15.55
2022-11-21T14:07:30.507Z,15.48
2022-11-21T14:10:02.683Z,15.39
2022-11-21T14:12:38.443Z,15.30
2022-11-21T14:15:19.200Z,15.28
2022-11-21T14:17:49.832Z,15.20
2022-11-21T14:20:21.756Z,15.15
2022-11-21T14:22:55.983Z,15.10
2022-11-21T14:25:30.626Z,15.07
2022-11-21T14:28:00.326Z,15.01
2022-11-21T14:30:31.313Z,15.01
2022-11-21T14:33:15.666Z,14.94
2022-11-21T14:35:48.871Z,14.83
2022-11-21T14:38:20.622Z,14.81
2022-11-21T14:40:51.875Z,14.74
2022-11-21T14:43:30.441Z,14.67
2022-11-21T14:46:00.979Z,14.67
2022-11-21T14:48:31.223Z,14.65
2022-11-21T14:51:01.859Z,14.65
2022-11-21T14:53:33.135Z,14.53
2022-11-21T14:56:04.039Z,14.47
2022-11-21T14:58:33.545Z,14.44
2022-11-21T15:01:04.188Z,14.38
2022-11-21T15:03:34.068Z,14.38
2022-11-21T15:06:06.999Z,14.41
2022-11-21T15:11:34.080Z,14.25
2022-11-21T15:14:16.488Z,14.25
2022-11-21T15:16:48.107Z,14.18
2022-11-21T15:19:21.937Z,14.12
2022-11-21T15:21:52.290Z,14.04
2022-11-21T15:24:30.191Z,14.04
2022-11-21T15:27:01.403Z,13.92
2022-11-21T15:29:31.466Z,13.95
2022-11-21T15:32:07.613Z,13.97
2022-11-21T15:34:37.396Z,13.88
2022-11-21T15:37:13.391Z,13.87
2022-11-21T15:39:44.085Z,13.81
2022-11-21T15:42:30.474Z,13.80
2022-11-21T15:45:00.664Z,13.78
2022-11-21T15:47:30.308Z,13.75
2022-11-21T15:50:00.457Z,13.68
2022-11-21T15:52:30.429Z,13.61
2022-11-21T15:54:59.984Z,13.52
2022-11-21T15:57:30.934Z,13.50
2022-11-21T16:00:00.980Z,13.37
2022-11-21T16:02:30.728Z,13.24
2022-11-21T16:05:00.491Z,13.17
2022-11-21T16:07:30.219Z,13.15
2022-11-21T16:10:01.131Z,13.03
2022-11-21T16:12:32.728Z,12.98
2022-11-21T16:15:02.973Z,12.95
2022-11-21T16:17:33.101Z,12.82
2022-11-21T16:20:02.685Z,12.79
2022-11-21T16:22:32.571Z,12.82
2022-11-21T16:25:02.413Z,12.67
2022-11-21T16:27:34.195Z,12.64
2022-11-21T16:30:04.125Z,12.73
2022-11-21T16:32:34.177Z,12.66
2022-11-21T16:35:03.770Z,12.58
2022-11-21T16:37:33.319Z,12.64
2022-11-21T16:40:02.893Z,12.58
2022-11-21T16:42:32.421Z,12.54
2022-11-21T16:45:03.359Z,12.48
2022-11-21T16:47:32.893Z,12.45
2022-11-21T16:50:02.673Z,12.42
2022-11-21T16:52:33.860Z,12.32
2022-11-21T16:55:04.310Z,12.33
2022-11-21T16:57:35.228Z,12.36
2022-11-21T17:00:07.167Z,12.19
2022-11-21T17:02:38.073Z,12.11
2022-11-21T17:05:08.402Z,12.23
2022-11-21T17:07:41.508Z,12.24
2022-11-21T17:10:12.503Z,12.29
2022-11-21T17:12:43.304Z,12.30
2022-11-21T17:15:15.895Z,12.35
2022-11-21T17:17:45.720Z,12.28
2022-11-21T17:20:15.209Z,12.33
2022-11-21T17:22:44.755Z,12.39
2022-11-21T17:25:14.326Z,12.26
2022-11-21T17:27:43.910Z,12.29
2022-11-21T17:30:15.973Z,12.21
2022-11-21T17:32:47.059Z,12.16
2022-11-21T17:35:16.830Z,12.11
2022-11-21T17:37:47.060Z,12.15
2022-11-21T17:40:16.745Z,12.21
2022-11-21T17:42:47.119Z,12.19
2022-11-21T17:45:17.162Z,12.14
2022-11-21T17:47:48.072Z,12.25
2022-11-21T17:50:17.972Z,12.14
2022-11-21T17:52:47.848Z,12.17
2022-11-21T17:55:17.409Z,12.18
2022-11-21T17:57:47.673Z,12.16
2022-11-21T18:00:17.393Z,12.18
2022-11-21T18:02:48.567Z,12.22
2022-11-21T18:05:18.418Z,12.15
2022-11-21T18:07:48.688Z,12.19
2022-11-21T18:10:41.498Z,12.19
2022-11-21T18:13:09.498Z,12.14
2022-11-21T18:15:39.034Z,12.11
2022-11-21T18:18:10.026Z,12.10
2022-11-21T18:20:39.706Z,12.05
2022-11-21T18:23:09.612Z,12.07
2022-11-21T18:25:39.446Z,11.96
2022-11-21T18:28:10.345Z,11.99
2022-11-21T18:30:40.042Z,12.05
2022-11-21T18:33:14.659Z,11.97
2022-11-21T18:35:48.487Z,11.92
2022-11-21T18:38:46.087Z,11.91
2022-11-21T18:41:08.480Z,11.84
2022-11-21T18:43:38.198Z,11.88
2022-11-21T18:46:08.579Z,11.83
2022-11-21T18:49:01.546Z,11.79
2022-11-21T18:51:30.065Z,11.73
2022-11-21T18:54:01.187Z,11.73
2022-11-21T18:56:30.913Z,11.71
2022-11-21T18:59:00.909Z,11.73
2022-11-21T19:01:32.072Z,11.57
2022-11-21T19:04:03.672Z,11.59
2022-11-21T19:06:33.729Z,11.61
2022-11-21T19:09:03.657Z,11.57
2022-11-21T19:11:33.512Z,11.54
2022-11-21T19:14:03.649Z,11.41
2022-11-21T19:16:35.096Z,11.44
2022-11-21T19:21:57.973Z,11.44
2022-11-21T19:24:27.934Z,11.40
2022-11-21T19:26:57.886Z,11.33
2022-11-21T19:29:27.830Z,11.23
2022-11-21T19:31:57.870Z,11.28
2022-11-21T19:34:29.037Z,11.33
2022-11-21T19:36:58.979Z,11.31
2022-11-21T19:39:30.587Z,11.24
2022-11-21T19:42:03.085Z,11.30
2022-11-21T19:44:34.007Z,11.25
2022-11-21T19:47:04.005Z,11.22
2022-11-21T19:49:37.597Z,11.12
2022-11-21T19:52:07.442Z,11.15
2022-11-21T19:54:37.180Z,11.24
2022-11-21T19:57:12.426Z,11.21
2022-11-21T19:59:46.654Z,11.22
2022-11-21T20:02:18.109Z,11.17
2022-11-21T20:04:49.260Z,11.14
2022-11-21T20:07:18.969Z,11.15
2022-11-21T20:09:48.870Z,11.17
2022-11-21T20:12:19.179Z,11.09
2022-11-21T20:14:49.400Z,11.10
2022-11-21T20:17:19.274Z,10.97
2022-11-21T20:19:51.936Z,10.99
2022-11-21T20:22:21.720Z,11.05
2022-11-21T20:24:52.065Z,10.97
2022-11-21T20:27:21.879Z,10.97
2022-11-21T20:29:51.647Z,10.85
2022-11-21T20:32:21.354Z,10.78
2022-11-21T20:34:52.528Z,10.84
2022-11-21T20:37:22.474Z,10.80
2022-11-21T20:39:52.096Z,10.76
2022-11-21T20:42:21.665Z,10.72
2022-11-21T20:46:01.027Z,10.86
2022-11-21T20:47:40.929Z,10.83
2022-11-21T20:50:21.565Z,10.81
2022-11-21T20:55:51.191Z,10.70
2022-11-21T20:58:20.876Z,10.63
2022-11-21T21:00:50.536Z,10.63
2022-11-21T21:03:20.172Z,10.37
2022-11-21T21:05:54.375Z,10.37
2022-11-21T21:08:24.006Z,10.17
2022-11-21T21:11:05.853Z,10.35
2022-11-21T21:13:36.345Z,10.29
2022-11-21T21:16:06.790Z,10.20
2022-11-21T21:18:36.915Z,10.29
2022-11-21T21:21:16.902Z,10.31
2022-11-21T21:23:48.492Z,10.24
2022-11-21T21:26:18.963Z,10.23
2022-11-21T21:28:48.979Z,10.26
2022-11-21T21:31:19.566Z,10.35
2022-11-21T21:33:49.218Z,10.28
2022-11-21T21:36:20.776Z,10.29
2022-11-21T21:38:51.281Z,10.33
2022-11-21T21:41:21.267Z,10.29
2022-11-21T21:43:50.997Z,10.26
2022-11-21T21:46:21.669Z,10.17
2022-11-21T21:48:54.692Z,10.15
2022-11-21T21:51:26.616Z,10.10
2022-11-21T21:53:57.044Z,10.02
2022-11-21T21:56:27.781Z,10.03
2022-11-21T21:58:57.933Z,10.03
2022-11-21T22:01:29.908Z,9.96
2022-11-21T22:04:00.760Z,10.05
2022-11-21T22:06:33.420Z,10.06
2022-11-21T22:09:03.356Z,10.04
2022-11-21T22:11:34.048Z,10.06
2022-11-21T22:14:05.240Z,9.96
2022-11-21T22:16:35.477Z,10.07
2022-11-21T22:19:05.046Z,10.01
2022-11-21T22:21:36.891Z,10.01
2022-11-21T22:24:27.566Z,10.10
2022-11-21T22:26:57.741Z,9.96
2022-11-21T22:29:27.331Z,10.03
2022-11-21T22:31:56.892Z,10.02
2022-11-21T22:34:26.714Z,10.05
2022-11-21T22:36:57.732Z,10.01
2022-11-21T22:39:27.412Z,10.04
2022-11-21T22:41:59.850Z,9.98
2022-11-21T22:44:29.926Z,9.96
2022-11-21T22:46:59.756Z,9.98
2022-11-21T22:49:29.476Z,10.00
2022-11-21T22:52:00.387Z,9.93
2022-11-21T22:54:30.925Z,10.08
2022-11-21T22:57:00.928Z,9.99
2022-11-21T22:59:30.512Z,10.02
2022-11-21T23:02:00.172Z,9.98
2022-11-21T23:04:29.793Z,10.07
2022-11-21T23:07:00.880Z,9.93
2022-11-21T23:09:30.939Z,9.89
2022-11-21T23:12:01.868Z,9.75
2022-11-21T23:14:32.160Z,9.61
2022-11-21T23:17:02.038Z,9.57
2022-11-21T23:19:31.789Z,9.59
2022-11-21T23:22:02.895Z,9.36
2022-11-21T23:24:32.749Z,9.33
2022-11-21T23:27:02.223Z,9.21
2022-11-21T23:29:32.090Z,9.24
2022-11-21T23:32:01.804Z,9.26
2022-11-21T23:34:31.297Z,9.30
2022-11-21T23:37:02.263Z,9.21
2022-11-21T23:39:32.152Z,9.08
2022-11-21T23:42:02.133Z,9.21
2022-11-21T23:44:31.658Z,9.18
2022-11-21T23:47:01.180Z,9.20
2022-11-21T23:49:31.052Z,9.13
2022-11-21T23:52:02.427Z,9.20
2022-11-21T23:54:32.245Z,9.23
2022-11-21T23:57:01.788Z,9.17
2022-11-21T23:59:31.481Z,9.08
